sensor_id;sensor_type;location;lat;lon;timestamp;pressure;altitude;pressure_sealevel;temperature;humidity
71974;BME280;59840;52.122;5.404;2023-06-24T06:21:02;102570.97;;;18.66;79.97
71974;BME280;59840;52.122;5.404;2023-06-24T06:23:29;102560.81;;;18.68;79.68
71974;BME280;59840;52.122;5.404;2023-06-24T06:25:56;102569.91;;;18.72;79.50
71974;BME280;59840;52.122;5.404;2023-06-24T06:28:23;102574.22;;;18.73;78.97
71974;BME280;59840;52.122;5.404;2023-06-24T06:30:50;102572.88;;;18.76;79.83
71974;BME280;59840;52.122;5.404;2023-06-24T06:33:17;102572.63;;;18.78;79.30
71974;BME280;59840;52.122;5.404;2023-06-24T06:35:43;102562.75;;;18.78;78.89
71974;BME280;59840;52.122;5.404;2023-06-24T06:38:10;102571.31;;;18.80;79.15
71974;BME280;59840;52.122;5.404;2023-06-24T06:40:36;102568.38;;;18.82;78.51
71974;BME280;59840;52.122;5.404;2023-06-24T06:43:03;102565.19;;;18.85;78.10
71974;BME280;59840;52.122;5.404;2023-06-24T06:45:29;102567.91;;;18.90;77.83
71974;BME280;59840;52.122;5.404;2023-06-24T06:47:58;102573.56;;;18.93;78.16
71974;BME280;59840;52.122;5.404;2023-06-24T06:50:25;102568.25;;;18.98;76.60
71974;BME280;59840;52.122;5.404;2023-06-24T06:52:51;102574.69;;;19.02;77.04
71974;BME280;59840;52.122;5.404;2023-06-24T06:55:18;102567.72;;;19.06;76.66
71974;BME280;59840;52.122;5.404;2023-06-24T06:57:44;102562.69;;;19.10;76.52
71974;BME280;59840;52.122;5.404;2023-06-24T07:00:11;102562.72;;;19.15;76.02
71974;BME280;59840;52.122;5.404;2023-06-24T07:02:38;102565.41;;;19.20;76.50
71974;BME280;59840;52.122;5.404;2023-06-24T07:05:05;102567.31;;;19.25;76.38
71974;BME280;59840;52.122;5.404;2023-06-24T07:07:31;102561.44;;;19.28;75.77
71974;BME280;59840;52.122;5.404;2023-06-24T07:09:59;102571.91;;;19.34;75.73
71974;BME280;59840;52.122;5.404;2023-06-24T07:12:25;102568.16;;;19.40;75.60
71974;BME280;59840;52.122;5.404;2023-06-24T07:14:52;102568.19;;;19.46;74.83
71974;BME280;59840;52.122;5.404;2023-06-24T07:17:19;102568.25;;;19.51;74.70
71974;BME280;59840;52.122;5.404;2023-06-24T07:19:45;102558.63;;;19.55;74.50
71974;BME280;59840;52.122;5.404;2023-06-24T07:22:13;102563.47;;;19.58;74.33
71974;BME280;59840;52.122;5.404;2023-06-24T07:24:41;102569.66;;;19.63;74.85
71974;BME280;59840;52.122;5.404;2023-06-24T07:27:08;102576.91;;;19.68;74.93
71974;BME280;59840;52.122;5.404;2023-06-24T07:29:34;102577.72;;;19.73;74.99
71974;BME280;59840;52.122;5.404;2023-06-24T07:32:01;102572.34;;;19.79;74.51
71974;BME280;59840;52.122;5.404;2023-06-24T07:34:29;102565.69;;;19.86;74.43
71974;BME280;59840;52.122;5.404;2023-06-24T07:36:56;102565.97;;;19.95;73.35
71974;BME280;59840;52.122;5.404;2023-06-24T07:39:25;102570.28;;;20.01;72.58
71974;BME280;59840;52.122;5.404;2023-06-24T07:41:51;102568.41;;;20.06;73.23
71974;BME280;59840;52.122;5.404;2023-06-24T07:44:18;102569.47;;;20.16;73.02
71974;BME280;59840;52.122;5.404;2023-06-24T07:46:45;102567.88;;;20.20;71.95
71974;BME280;59840;52.122;5.404;2023-06-24T07:49:12;102565.75;;;20.32;71.30
71974;BME280;59840;52.122;5.404;2023-06-24T07:51:38;102568.72;;;20.35;71.67
71974;BME280;59840;52.122;5.404;2023-06-24T07:54:05;102564.72;;;20.38;71.49
71974;BME280;59840;52.122;5.404;2023-06-24T07:56:32;102558.28;;;20.44;71.58
71974;BME280;59840;52.122;5.404;2023-06-24T07:58:58;102557.72;;;20.52;69.82
71974;BME280;59840;52.122;5.404;2023-06-24T08:01:25;102560.94;;;20.59;69.47
71974;BME280;59840;52.122;5.404;2023-06-24T08:03:51;102559.88;;;20.65;69.41
71974;BME280;59840;52.122;5.404;2023-06-24T08:06:18;102561.22;;;20.73;68.44
71974;BME280;59840;52.122;5.404;2023-06-24T08:08:45;102563.06;;;20.88;67.36
71974;BME280;59840;52.122;5.404;2023-06-24T08:11:13;102562.75;;;20.99;67.67
71974;BME280;59840;52.122;5.404;2023-06-24T08:13:40;102557.09;;;21.11;67.75
71974;BME280;59840;52.122;5.404;2023-06-24T08:16:06;102550.63;;;21.22;67.34
71974;BME280;59840;52.122;5.404;2023-06-24T08:18:33;102555.69;;;21.34;67.04
71974;BME280;59840;52.122;5.404;2023-06-24T08:21:00;102551.91;;;21.45;66.69
71974;BME280;59840;52.122;5.404;2023-06-24T08:23:26;102552.13;;;21.54;66.00
71974;BME280;59840;52.122;5.404;2023-06-24T08:25:53;102561.72;;;21.65;64.79
71974;BME280;59840;52.122;5.404;2023-06-24T08:28:34;102554.97;;;21.78;63.86
71974;BME280;59840;52.122;5.404;2023-06-24T08:31:00;102553.53;;;21.85;64.13
71974;BME280;59840;52.122;5.404;2023-06-24T08:33:27;102555.16;;;21.86;64.18
71974;BME280;59840;52.122;5.404;2023-06-24T08:35:54;102552.16;;;21.93;63.52
71974;BME280;59840;52.122;5.404;2023-06-24T08:38:20;102557.78;;;21.96;64.61
71974;BME280;59840;52.122;5.404;2023-06-24T08:40:49;102554.50;;;22.10;64.17
71974;BME280;59840;52.122;5.404;2023-06-24T08:43:16;102560.06;;;22.18;63.13
71974;BME280;59840;52.122;5.404;2023-06-24T08:45:42;102561.63;;;22.24;62.64
71974;BME280;59840;52.122;5.404;2023-06-24T08:48:10;102562.09;;;22.36;62.31
71974;BME280;59840;52.122;5.404;2023-06-24T08:50:43;102559.34;;;22.42;62.84
71974;BME280;59840;52.122;5.404;2023-06-24T08:53:11;102563.69;;;22.37;62.87
71974;BME280;59840;52.122;5.404;2023-06-24T08:55:43;102560.72;;;22.39;63.11
71974;BME280;59840;52.122;5.404;2023-06-24T08:58:12;102550.44;;;22.46;62.94
71974;BME280;59840;52.122;5.404;2023-06-24T09:00:39;102546.00;;;22.60;61.52
71974;BME280;59840;52.122;5.404;2023-06-24T09:03:06;102552.31;;;22.74;62.24
71974;BME280;59840;52.122;5.404;2023-06-24T09:05:32;102558.44;;;22.85;62.49
71974;BME280;59840;52.122;5.404;2023-06-24T09:08:00;102557.56;;;22.90;62.06
71974;BME280;59840;52.122;5.404;2023-06-24T09:10:30;102547.88;;;22.89;61.73
71974;BME280;59840;52.122;5.404;2023-06-24T09:12:59;102559.13;;;22.96;63.12
71974;BME280;59840;52.122;5.404;2023-06-24T09:15:32;102554.94;;;23.09;62.99
71974;BME280;59840;52.122;5.404;2023-06-24T09:17:59;102542.19;;;23.19;62.92
71974;BME280;59840;52.122;5.404;2023-06-24T09:20:27;102537.66;;;23.33;61.81
71974;BME280;59840;52.122;5.404;2023-06-24T09:23:02;102541.34;;;23.43;62.02
71974;BME280;59840;52.122;5.404;2023-06-24T09:25:30;102541.50;;;23.51;59.29
71974;BME280;59840;52.122;5.404;2023-06-24T09:28:00;102544.28;;;23.65;60.79
71974;BME280;59840;52.122;5.404;2023-06-24T09:30:27;102535.53;;;23.73;59.34
71974;BME280;59840;52.122;5.404;2023-06-24T09:32:55;102539.78;;;23.79;59.50
71974;BME280;59840;52.122;5.404;2023-06-24T09:35:24;102540.22;;;23.86;60.55
71974;BME280;59840;52.122;5.404;2023-06-24T09:37:52;102533.16;;;23.90;60.85
71974;BME280;59840;52.122;5.404;2023-06-24T09:40:20;102541.94;;;23.96;57.95
71974;BME280;59840;52.122;5.404;2023-06-24T09:42:57;102533.25;;;23.99;58.18
71974;BME280;59840;52.122;5.404;2023-06-24T09:45:25;102525.91;;;24.04;57.83
71974;BME280;59840;52.122;5.404;2023-06-24T09:47:53;102530.91;;;24.11;57.77
71974;BME280;59840;52.122;5.404;2023-06-24T09:50:20;102526.31;;;24.12;57.96
71974;BME280;59840;52.122;5.404;2023-06-24T09:52:48;102532.94;;;24.19;57.69
71974;BME280;59840;52.122;5.404;2023-06-24T09:55:17;102524.28;;;24.22;55.31
71974;BME280;59840;52.122;5.404;2023-06-24T09:57:52;102517.56;;;24.20;56.78
71974;BME280;59840;52.122;5.404;2023-06-24T10:00:20;102522.97;;;24.20;59.30
71974;BME280;59840;52.122;5.404;2023-06-24T10:02:48;102516.19;;;24.22;56.55
71974;BME280;59840;52.122;5.404;2023-06-24T10:05:15;102515.38;;;24.22;56.96
71974;BME280;59840;52.122;5.404;2023-06-24T10:07:43;102520.22;;;24.25;56.88
71974;BME280;59840;52.122;5.404;2023-06-24T10:10:09;102512.22;;;24.33;57.95
71974;BME280;59840;52.122;5.404;2023-06-24T10:12:36;102520.06;;;24.49;56.62
71974;BME280;59840;52.122;5.404;2023-06-24T10:15:05;102516.38;;;24.58;56.35
71974;BME280;59840;52.122;5.404;2023-06-24T10:17:32;102516.84;;;24.60;55.76
71974;BME280;59840;52.122;5.404;2023-06-24T10:20:03;102524.47;;;24.58;55.29
71974;BME280;59840;52.122;5.404;2023-06-24T10:22:30;102516.69;;;24.57;57.02
71974;BME280;59840;52.122;5.404;2023-06-24T10:25:06;102508.97;;;24.64;58.12
71974;BME280;59840;52.122;5.404;2023-06-24T10:27:40;102503.88;;;24.76;57.28
71974;BME280;59840;52.122;5.404;2023-06-24T10:30:17;102505.19;;;24.79;56.92
71974;BME280;59840;52.122;5.404;2023-06-24T10:32:44;102503.88;;;24.90;55.75
71974;BME280;59840;52.122;5.404;2023-06-24T10:35:25;102503.69;;;25.00;55.68
71974;BME280;59840;52.122;5.404;2023-06-24T10:37:59;102501.50;;;25.02;56.57
71974;BME280;59840;52.122;5.404;2023-06-24T10:45:52;102500.38;;;24.48;57.62
71974;BME280;59840;52.122;5.404;2023-06-24T10:48:19;102493.69;;;24.59;59.01
71974;BME280;59840;52.122;5.404;2023-06-24T10:50:49;102490.19;;;24.59;54.74
71974;BME280;59840;52.122;5.404;2023-06-24T10:53:18;102485.06;;;24.71;55.26
71974;BME280;59840;52.122;5.404;2023-06-24T10:55:45;102497.91;;;24.93;54.82
71974;BME280;59840;52.122;5.404;2023-06-24T10:58:14;102489.00;;;24.92;55.63
71974;BME280;59840;52.122;5.404;2023-06-24T11:00:42;102492.19;;;24.81;55.34
71974;BME280;59840;52.122;5.404;2023-06-24T11:03:15;102489.47;;;24.81;55.86
71974;BME280;59840;52.122;5.404;2023-06-24T11:05:43;102487.28;;;25.10;55.71
71974;BME280;59840;52.122;5.404;2023-06-24T11:08:11;102481.13;;;25.32;55.40
71974;BME280;59840;52.122;5.404;2023-06-24T11:10:47;102478.19;;;25.56;54.84
71974;BME280;59840;52.122;5.404;2023-06-24T11:13:14;102487.53;;;25.72;55.69
71974;BME280;59840;52.122;5.404;2023-06-24T11:15:41;102480.56;;;25.57;55.22
71974;BME280;59840;52.122;5.404;2023-06-24T11:18:09;102475.63;;;25.37;57.07
71974;BME280;59840;52.122;5.404;2023-06-24T11:20:40;102481.97;;;25.19;57.57
71974;BME280;59840;52.122;5.404;2023-06-24T11:23:21;102485.88;;;24.99;59.37
71974;BME280;59840;52.122;5.404;2023-06-24T11:25:53;102481.97;;;24.78;59.12
71974;BME280;59840;52.122;5.404;2023-06-24T11:28:37;102478.56;;;24.72;57.37
71974;BME280;59840;52.122;5.404;2023-06-24T11:31:07;102473.59;;;24.93;58.00
71974;BME280;59840;52.122;5.404;2023-06-24T11:33:36;102472.28;;;25.04;58.03
71974;BME280;59840;52.122;5.404;2023-06-24T11:36:09;102476.16;;;25.25;57.12
71974;BME280;59840;52.122;5.404;2023-06-24T11:38:37;102463.16;;;25.50;57.69
71974;BME280;59840;52.122;5.404;2023-06-24T11:41:05;102463.09;;;25.77;55.02
71974;BME280;59840;52.122;5.404;2023-06-24T11:43:34;102458.00;;;25.98;54.59
71974;BME280;59840;52.122;5.404;2023-06-24T11:46:01;102464.72;;;26.09;55.49
71974;BME280;59840;52.122;5.404;2023-06-24T11:48:42;102464.72;;;26.40;54.54
71974;BME280;59840;52.122;5.404;2023-06-24T11:51:13;102457.75;;;26.48;53.02
71974;BME280;59840;52.122;5.404;2023-06-24T11:53:45;102460.03;;;26.23;52.11
71974;BME280;59840;52.122;5.404;2023-06-24T11:56:36;102450.97;;;25.97;53.03
71974;BME280;59840;52.122;5.404;2023-06-24T11:59:14;102456.25;;;25.80;53.52
71974;BME280;59840;52.122;5.404;2023-06-24T12:01:52;102457.13;;;25.66;53.50
71974;BME280;59840;52.122;5.404;2023-06-24T12:04:33;102454.25;;;25.49;57.20
71974;BME280;59840;52.122;5.404;2023-06-24T12:07:11;102451.59;;;25.35;56.91
71974;BME280;59840;52.122;5.404;2023-06-24T12:09:38;102442.63;;;25.26;56.48
71974;BME280;59840;52.122;5.404;2023-06-24T12:12:05;102451.75;;;25.17;54.36
71974;BME280;59840;52.122;5.404;2023-06-24T12:14:33;102446.78;;;25.10;56.46
71974;BME280;59840;52.122;5.404;2023-06-24T12:16:59;102445.88;;;25.01;56.49
71974;BME280;59840;52.122;5.404;2023-06-24T12:19:26;102448.69;;;24.96;59.28
71974;BME280;59840;52.122;5.404;2023-06-24T12:21:53;102445.28;;;24.90;60.33
71974;BME280;59840;52.122;5.404;2023-06-24T12:24:20;102438.59;;;24.88;57.56
71974;BME280;59840;52.122;5.404;2023-06-24T12:26:47;102436.97;;;24.87;56.43
71974;BME280;59840;52.122;5.404;2023-06-24T12:29:15;102442.09;;;24.88;57.60
71974;BME280;59840;52.122;5.404;2023-06-24T12:31:42;102433.97;;;24.88;57.35
71974;BME280;59840;52.122;5.404;2023-06-24T12:34:09;102439.88;;;24.90;60.21
71974;BME280;59840;52.122;5.404;2023-06-24T12:36:36;102444.97;;;24.92;60.67
71974;BME280;59840;52.122;5.404;2023-06-24T12:39:03;102442.28;;;24.92;60.78
71974;BME280;59840;52.122;5.404;2023-06-24T12:41:30;102427.97;;;24.91;60.62
71974;BME280;59840;52.122;5.404;2023-06-24T12:43:56;102428.19;;;24.95;58.24
71974;BME280;59840;52.122;5.404;2023-06-24T12:46:24;102432.47;;;24.96;59.26
71974;BME280;59840;52.122;5.404;2023-06-24T12:48:51;102435.69;;;24.98;62.16
71974;BME280;59840;52.122;5.404;2023-06-24T12:51:17;102428.69;;;24.97;59.85
71974;BME280;59840;52.122;5.404;2023-06-24T12:53:44;102424.88;;;24.98;58.58
71974;BME280;59840;52.122;5.404;2023-06-24T12:56:11;102413.28;;;24.97;58.73
71974;BME280;59840;52.122;5.404;2023-06-24T12:58:38;102415.38;;;25.00;58.60
71974;BME280;59840;52.122;5.404;2023-06-24T13:01:05;102414.16;;;25.07;57.10
71974;BME280;59840;52.122;5.404;2023-06-24T13:03:33;102413.84;;;25.08;60.04
71974;BME280;59840;52.122;5.404;2023-06-24T13:06:00;102413.25;;;25.11;60.09
71974;BME280;59840;52.122;5.404;2023-06-24T13:08:27;102411.66;;;25.10;57.10
71974;BME280;59840;52.122;5.404;2023-06-24T13:10:53;102415.34;;;25.14;55.18
71974;BME280;59840;52.122;5.404;2023-06-24T13:13:20;102410.31;;;25.21;54.17
71974;BME280;59840;52.122;5.404;2023-06-24T13:15:47;102413.53;;;25.23;55.86
71974;BME280;59840;52.122;5.404;2023-06-24T13:18:14;102412.91;;;25.26;54.44
71974;BME280;59840;52.122;5.404;2023-06-24T13:20:40;102409.41;;;25.26;55.18
71974;BME280;59840;52.122;5.404;2023-06-24T13:23:07;102414.38;;;25.32;55.75
71974;BME280;59840;52.122;5.404;2023-06-24T13:25:34;102414.56;;;25.36;55.52
71974;BME280;59840;52.122;5.404;2023-06-24T13:28:01;102414.25;;;25.37;54.70
71974;BME280;59840;52.122;5.404;2023-06-24T13:30:28;102409.34;;;25.39;54.44
71974;BME280;59840;52.122;5.404;2023-06-24T13:32:55;102414.34;;;25.46;54.02
71974;BME280;59840;52.122;5.404;2023-06-24T13:35:21;102420.53;;;25.47;53.21
71974;BME280;59840;52.122;5.404;2023-06-24T13:37:48;102411.44;;;25.43;53.81
71974;BME280;59840;52.122;5.404;2023-06-24T13:40:15;102415.13;;;25.47;53.38
71974;BME280;59840;52.122;5.404;2023-06-24T13:42:44;102409.63;;;25.52;55.30
71974;BME280;59840;52.122;5.404;2023-06-24T13:45:10;102406.78;;;25.57;54.63
71974;BME280;59840;52.122;5.404;2023-06-24T13:47:37;102411.88;;;25.58;58.12
71974;BME280;59840;52.122;5.404;2023-06-24T13:50:05;102406.91;;;25.52;58.46
71974;BME280;59840;52.122;5.404;2023-06-24T13:52:32;102409.13;;;25.50;56.28
71974;BME280;59840;52.122;5.404;2023-06-24T13:54:59;102401.00;;;25.50;57.17
71974;BME280;59840;52.122;5.404;2023-06-24T13:57:25;102398.81;;;25.52;55.47
71974;BME280;59840;52.122;5.404;2023-06-24T13:59:52;102404.69;;;25.54;56.67
71974;BME280;59840;52.122;5.404;2023-06-24T14:02:18;102397.69;;;25.53;58.10
71974;BME280;59840;52.122;5.404;2023-06-24T14:04:45;102392.91;;;25.50;57.91
71974;BME280;59840;52.122;5.404;2023-06-24T14:07:12;102397.19;;;25.51;56.58
71974;BME280;59840;52.122;5.404;2023-06-24T14:09:39;102399.91;;;25.51;57.12
71974;BME280;59840;52.122;5.404;2023-06-24T14:12:06;102389.88;;;25.51;56.86
71974;BME280;59840;52.122;5.404;2023-06-24T14:14:35;102386.88;;;25.53;56.32
71974;BME280;59840;52.122;5.404;2023-06-24T14:17:06;102391.69;;;25.56;55.32
71974;BME280;59840;52.122;5.404;2023-06-24T14:19:35;102390.25;;;25.58;57.86
71974;BME280;59840;52.122;5.404;2023-06-24T14:22:02;102395.47;;;25.55;58.95
71974;BME280;59840;52.122;5.404;2023-06-24T14:24:29;102392.28;;;25.53;58.62
71974;BME280;59840;52.122;5.404;2023-06-24T14:26:56;102388.97;;;25.56;56.08
71974;BME280;59840;52.122;5.404;2023-06-24T14:29:22;102385.66;;;25.59;54.09
71974;BME280;59840;52.122;5.404;2023-06-24T14:31:49;102383.94;;;25.63;52.85
71974;BME280;59840;52.122;5.404;2023-06-24T14:34:15;102386.03;;;25.66;58.44
71974;BME280;59840;52.122;5.404;2023-06-24T14:36:43;102382.06;;;25.63;56.55
71974;BME280;59840;52.122;5.404;2023-06-24T14:39:14;102383.00;;;25.67;59.26
71974;BME280;59840;52.122;5.404;2023-06-24T14:41:42;102377.44;;;25.64;61.27
71974;BME280;59840;52.122;5.404;2023-06-24T14:44:10;102369.63;;;25.62;60.72
71974;BME280;59840;52.122;5.404;2023-06-24T14:46:37;102369.44;;;25.81;56.57
71974;BME280;59840;52.122;5.404;2023-06-24T14:49:04;102367.63;;;25.99;54.24
71974;BME280;59840;52.122;5.404;2023-06-24T14:51:30;102377.47;;;26.03;55.25
71974;BME280;59840;52.122;5.404;2023-06-24T14:53:57;102375.44;;;26.09;55.47
71974;BME280;59840;52.122;5.404;2023-06-24T14:56:24;102371.63;;;26.10;53.77
71974;BME280;59840;52.122;5.404;2023-06-24T14:58:51;102367.19;;;26.14;54.32
71974;BME280;59840;52.122;5.404;2023-06-24T15:01:17;102359.56;;;26.16;54.17
71974;BME280;59840;52.122;5.404;2023-06-24T15:03:44;102362.91;;;26.22;52.29
71974;BME280;59840;52.122;5.404;2023-06-24T15:06:11;102362.28;;;26.25;53.46
71974;BME280;59840;52.122;5.404;2023-06-24T15:08:38;102358.78;;;26.24;53.22
71974;BME280;59840;52.122;5.404;2023-06-24T15:11:04;102360.22;;;26.22;54.54
71974;BME280;59840;52.122;5.404;2023-06-24T15:13:31;102354.56;;;26.32;54.43
71974;BME280;59840;52.122;5.404;2023-06-24T15:15:58;102354.38;;;26.37;52.74
71974;BME280;59840;52.122;5.404;2023-06-24T15:18:24;102356.16;;;26.33;52.31
71974;BME280;59840;52.122;5.404;2023-06-24T15:20:51;102337.31;;;26.28;52.50
71974;BME280;59840;52.122;5.404;2023-06-24T15:23:20;102346.53;;;26.27;52.34
71974;BME280;59840;52.122;5.404;2023-06-24T15:25:47;102348.78;;;26.25;52.21
71974;BME280;59840;52.122;5.404;2023-06-24T15:28:13;102343.53;;;26.28;54.31
71974;BME280;59840;52.122;5.404;2023-06-24T15:30:40;102343.84;;;26.27;55.84
71974;BME280;59840;52.122;5.404;2023-06-24T15:33:07;102340.78;;;26.20;54.91
71974;BME280;59840;52.122;5.404;2023-06-24T15:35:34;102349.22;;;26.18;56.49
71974;BME280;59840;52.122;5.404;2023-06-24T15:38:04;102345.75;;;26.26;53.54
71974;BME280;59840;52.122;5.404;2023-06-24T15:40:31;102342.63;;;26.33;52.26
71974;BME280;59840;52.122;5.404;2023-06-24T15:42:57;102340.22;;;26.31;53.02
71974;BME280;59840;52.122;5.404;2023-06-24T15:45:24;102349.25;;;26.27;56.06
71974;BME280;59840;52.122;5.404;2023-06-24T15:47:50;102341.72;;;26.15;57.39
71974;BME280;59840;52.122;5.404;2023-06-24T15:50:17;102336.63;;;26.14;54.69
71974;BME280;59840;52.122;5.404;2023-06-24T15:52:43;102342.03;;;26.14;56.72
71974;BME280;59840;52.122;5.404;2023-06-24T15:55:10;102340.25;;;26.09;57.56
71974;BME280;59840;52.122;5.404;2023-06-24T15:57:37;102335.00;;;26.04;54.44
71974;BME280;59840;52.122;5.404;2023-06-24T16:00:04;102336.41;;;26.01;58.21
71974;BME280;59840;52.122;5.404;2023-06-24T16:02:31;102329.56;;;25.95;55.38
71974;BME280;59840;52.122;5.404;2023-06-24T16:04:58;102329.09;;;25.93;55.47
71974;BME280;59840;52.122;5.404;2023-06-24T16:07:25;102335.47;;;25.97;55.03
71974;BME280;59840;52.122;5.404;2023-06-24T16:09:51;102326.69;;;26.00;55.81
71974;BME280;59840;52.122;5.404;2023-06-24T16:12:18;102326.25;;;25.98;55.30
71974;BME280;59840;52.122;5.404;2023-06-24T16:18:41;102323.38;;;25.95;54.68
71974;BME280;59840;52.122;5.404;2023-06-24T16:21:08;102323.19;;;25.91;53.86
71974;BME280;59840;52.122;5.404;2023-06-24T16:23:35;102318.88;;;25.90;54.80
71974;BME280;59840;52.122;5.404;2023-06-24T16:26:02;102317.59;;;25.88;54.58
71974;BME280;59840;52.122;5.404;2023-06-24T16:28:44;102321.25;;;25.83;56.86
71974;BME280;59840;52.122;5.404;2023-06-24T16:35:04;102318.56;;;25.61;59.52
71974;BME280;59840;52.122;5.404;2023-06-24T16:37:30;102317.59;;;25.57;59.73
71974;BME280;59840;52.122;5.404;2023-06-24T16:39:57;102317.72;;;25.52;60.65
71974;BME280;59840;52.122;5.404;2023-06-24T16:42:23;102309.41;;;25.48;60.27
71974;BME280;59840;52.122;5.404;2023-06-24T16:44:50;102314.81;;;25.48;60.39
71974;BME280;59840;52.122;5.404;2023-06-24T16:47:29;102311.03;;;25.49;60.18
71974;BME280;59840;52.122;5.404;2023-06-24T16:49:56;102308.63;;;25.48;60.27
71974;BME280;59840;52.122;5.404;2023-06-24T16:52:23;102311.03;;;25.49;60.20
71974;BME280;59840;52.122;5.404;2023-06-24T16:55:09;102306.47;;;25.58;60.18
71974;BME280;59840;52.122;5.404;2023-06-24T16:57:39;102310.16;;;25.62;60.07
71974;BME280;59840;52.122;5.404;2023-06-24T17:00:06;102306.66;;;25.62;59.45
71974;BME280;59840;52.122;5.404;2023-06-24T17:02:33;102307.38;;;25.54;59.36
71974;BME280;59840;52.122;5.404;2023-06-24T17:05:00;102301.63;;;25.47;60.07
71974;BME280;59840;52.122;5.404;2023-06-24T17:07:26;102299.03;;;25.42;59.85
71974;BME280;59840;52.122;5.404;2023-06-24T17:09:53;102296.16;;;25.38;61.37
71974;BME280;59840;52.122;5.404;2023-06-24T17:12:20;102302.66;;;25.37;60.61
71974;BME280;59840;52.122;5.404;2023-06-24T17:14:46;102310.59;;;25.33;60.99
71974;BME280;59840;52.122;5.404;2023-06-24T17:17:13;102303.59;;;25.32;60.54
71974;BME280;59840;52.122;5.404;2023-06-24T17:19:40;102306.28;;;25.32;60.67
71974;BME280;59840;52.122;5.404;2023-06-24T17:22:06;102307.59;;;25.35;61.34
71974;BME280;59840;52.122;5.404;2023-06-24T17:24:33;102310.28;;;25.35;60.35
71974;BME280;59840;52.122;5.404;2023-06-24T17:26:59;102304.69;;;25.31;60.01
71974;BME280;59840;52.122;5.404;2023-06-24T17:29:26;102301.53;;;25.29;60.80
71974;BME280;59840;52.122;5.404;2023-06-24T17:31:52;102305.19;;;25.33;60.45
71974;BME280;59840;52.122;5.404;2023-06-24T17:34:19;102303.47;;;25.37;59.35
71974;BME280;59840;52.122;5.404;2023-06-24T17:36:45;102303.97;;;25.39;59.78
71974;BME280;59840;52.122;5.404;2023-06-24T17:39:12;102297.75;;;25.39;59.03
71974;BME280;59840;52.122;5.404;2023-06-24T17:41:39;102295.84;;;25.39;60.26
71974;BME280;59840;52.122;5.404;2023-06-24T17:44:05;102294.25;;;25.38;59.88
71974;BME280;59840;52.122;5.404;2023-06-24T17:46:32;102294.06;;;25.35;59.69
71974;BME280;59840;52.122;5.404;2023-06-24T17:48:59;102297.22;;;25.28;59.06
71974;BME280;59840;52.122;5.404;2023-06-24T17:51:25;102294.78;;;25.18;58.99
71974;BME280;59840;52.122;5.404;2023-06-24T17:53:52;102301.41;;;25.12;58.75
71974;BME280;59840;52.122;5.404;2023-06-24T17:56:19;102299.13;;;25.05;59.78
71974;BME280;59840;52.122;5.404;2023-06-24T17:58:45;102297.63;;;24.99;60.23
71974;BME280;59840;52.122;5.404;2023-06-24T18:01:12;102297.75;;;24.94;60.89
71974;BME280;59840;52.122;5.404;2023-06-24T18:03:42;102301.38;;;24.90;59.81
71974;BME280;59840;52.122;5.404;2023-06-24T18:06:08;102296.56;;;24.87;61.05
71974;BME280;59840;52.122;5.404;2023-06-24T18:08:35;102285.28;;;24.85;59.44
71974;BME280;59840;52.122;5.404;2023-06-24T18:11:01;102291.28;;;24.82;61.82
71974;BME280;59840;52.122;5.404;2023-06-24T18:13:28;102294.59;;;24.79;59.59
71974;BME280;59840;52.122;5.404;2023-06-24T18:15:54;102289.31;;;24.73;59.78
71974;BME280;59840;52.122;5.404;2023-06-24T18:18:21;102286.59;;;24.73;58.46
71974;BME280;59840;52.122;5.404;2023-06-24T18:20:48;102286.31;;;24.75;58.34
71974;BME280;59840;52.122;5.404;2023-06-24T18:23:15;102282.31;;;24.72;58.24
71974;BME280;59840;52.122;5.404;2023-06-24T18:25:41;102282.31;;;24.72;57.97
71974;BME280;59840;52.122;5.404;2023-06-24T18:28:08;102282.81;;;24.75;57.97
71974;BME280;59840;52.122;5.404;2023-06-24T18:30:34;102273.31;;;24.77;58.42
71974;BME280;59840;52.122;5.404;2023-06-24T18:33:01;102281.69;;;24.76;59.43
71974;BME280;59840;52.122;5.404;2023-06-24T18:35:28;102283.91;;;24.73;58.87
71974;BME280;59840;52.122;5.404;2023-06-24T18:37:55;102283.13;;;24.73;59.00
71974;BME280;59840;52.122;5.404;2023-06-24T18:40:22;102278.81;;;24.72;59.22
71974;BME280;59840;52.122;5.404;2023-06-24T18:42:48;102285.63;;;24.69;59.09
71974;BME280;59840;52.122;5.404;2023-06-24T18:45:15;102286.22;;;24.66;59.60
71974;BME280;59840;52.122;5.404;2023-06-24T18:47:43;102280.63;;;24.63;59.24
71974;BME280;59840;52.122;5.404;2023-06-24T18:50:10;102284.28;;;24.58;59.09
71974;BME280;59840;52.122;5.404;2023-06-24T18:52:36;102285.78;;;24.51;59.42
71974;BME280;59840;52.122;5.404;2023-06-24T18:55:03;102284.59;;;24.43;59.72
71974;BME280;59840;52.122;5.404;2023-06-24T18:57:29;102277.09;;;24.40;60.02
71974;BME280;59840;52.122;5.404;2023-06-24T18:59:56;102278.00;;;24.35;59.98
71974;BME280;59840;52.122;5.404;2023-06-24T19:02:23;102275.72;;;24.29;60.06
71974;BME280;59840;52.122;5.404;2023-06-24T19:04:49;102269.41;;;24.20;60.40
71974;BME280;59840;52.122;5.404;2023-06-24T19:07:16;102278.41;;;24.15;60.96
71974;BME280;59840;52.122;5.404;2023-06-24T19:09:43;102270.91;;;24.12;60.28
71974;BME280;59840;52.122;5.404;2023-06-24T19:12:09;102268.53;;;24.11;60.31
71974;BME280;59840;52.122;5.404;2023-06-24T19:14:36;102268.63;;;24.05;61.36
71974;BME280;59840;52.122;5.404;2023-06-24T19:17:03;102266.00;;;24.00;61.07
71974;BME280;59840;52.122;5.404;2023-06-24T19:19:29;102269.91;;;23.94;60.96
71974;BME280;59840;52.122;5.404;2023-06-24T19:21:56;102270.19;;;23.93;60.98
71974;BME280;59840;52.122;5.404;2023-06-24T19:24:23;102270.19;;;23.93;60.71
71974;BME280;59840;52.122;5.404;2023-06-24T19:26:49;102268.72;;;23.87;60.96